sensor_id;sensor_type;location;lat;lon;timestamp;pressure;altitude;pressure_sealevel;temperature;humidity
43420;BME280;29017;51.514;-0.178;2022-08-04T00:01:39;100933.09;;;22.71;62.38
43420;BME280;29017;51.514;-0.178;2022-08-04T00:04:13;100932.25;;;22.70;62.45
43420;BME280;29017;51.514;-0.178;2022-08-04T00:12:00;100938.44;;;22.71;61.76
43420;BME280;29017;51.514;-0.178;2022-08-04T00:14:33;100940.31;;;22.70;62.07
43420;BME280;29017;51.514;-0.178;2022-08-04T00:17:05;100941.78;;;22.66;61.65
43420;BME280;29017;51.514;-0.178;2022-08-04T00:19:43;100939.94;;;22.67;62.49
43420;BME280;29017;51.514;-0.178;2022-08-04T00:22:12;100934.34;;;22.68;62.38
43420;BME280;29017;51.514;-0.178;2022-08-04T00:24:40;100938.69;;;22.69;62.87
43420;BME280;29017;51.514;-0.178;2022-08-04T00:27:07;100934.13;;;22.70;62.80
43420;BME280;29017;51.514;-0.178;2022-08-04T00:29:34;100940.31;;;22.70;62.71
43420;BME280;29017;51.514;-0.178;2022-08-04T00:32:05;100930.41;;;22.71;62.69
43420;BME280;29017;51.514;-0.178;2022-08-04T00:34:32;100933.91;;;22.71;63.18
43420;BME280;29017;51.514;-0.178;2022-08-04T00:36:59;100933.31;;;22.69;61.78
43420;BME280;29017;51.514;-0.178;2022-08-04T00:39:27;100936.22;;;22.68;61.88
43420;BME280;29017;51.514;-0.178;2022-08-04T00:42:25;100937.84;;;22.69;61.87
43420;BME280;29017;51.514;-0.178;2022-08-04T00:55:43;100930.84;;;22.68;61.44
43420;BME280;29017;51.514;-0.178;2022-08-04T01:01:05;100924.53;;;22.62;60.68
43420;BME280;29017;51.514;-0.178;2022-08-04T01:03:49;100925.00;;;22.59;60.40
43420;BME280;29017;51.514;-0.178;2022-08-04T01:06:36;100923.34;;;22.58;60.29
43420;BME280;29017;51.514;-0.178;2022-08-04T01:15:06;100928.47;;;22.48;60.13
43420;BME280;29017;51.514;-0.178;2022-08-04T01:20:17;100924.00;;;22.42;60.49
43420;BME280;29017;51.514;-0.178;2022-08-04T01:28:43;100924.22;;;22.40;60.11
43420;BME280;29017;51.514;-0.178;2022-08-04T01:31:54;100923.03;;;22.36;60.54
43420;BME280;29017;51.514;-0.178;2022-08-04T01:34:22;100926.63;;;22.30;59.68
43420;BME280;29017;51.514;-0.178;2022-08-04T01:37:03;100928.53;;;22.30;59.93
43420;BME280;29017;51.514;-0.178;2022-08-04T01:39:35;100926.88;;;22.29;59.97
43420;BME280;29017;51.514;-0.178;2022-08-04T01:42:08;100922.91;;;22.31;59.34
43420;BME280;29017;51.514;-0.178;2022-08-04T01:44:39;100925.59;;;22.31;59.29
43420;BME280;29017;51.514;-0.178;2022-08-04T01:47:08;100927.69;;;22.29;59.38
43420;BME280;29017;51.514;-0.178;2022-08-04T01:49:37;100920.69;;;22.28;58.86
43420;BME280;29017;51.514;-0.178;2022-08-04T01:52:08;100919.66;;;22.29;58.39
43420;BME280;29017;51.514;-0.178;2022-08-04T01:54:38;100920.22;;;22.31;58.78
43420;BME280;29017;51.514;-0.178;2022-08-04T01:57:09;100920.84;;;22.33;58.83
43420;BME280;29017;51.514;-0.178;2022-08-04T01:59:58;100915.34;;;22.28;58.65
43420;BME280;29017;51.514;-0.178;2022-08-04T02:02:26;100919.88;;;22.28;58.41
43420;BME280;29017;51.514;-0.178;2022-08-04T02:04:54;100923.59;;;22.27;57.99
43420;BME280;29017;51.514;-0.178;2022-08-04T02:08:00;100912.28;;;22.25;58.11
43420;BME280;29017;51.514;-0.178;2022-08-04T02:10:29;100917.97;;;22.16;56.79
43420;BME280;29017;51.514;-0.178;2022-08-04T02:21:47;100922.75;;;22.14;56.66
43420;BME280;29017;51.514;-0.178;2022-08-04T02:24:18;100925.03;;;22.11;56.43
43420;BME280;29017;51.514;-0.178;2022-08-04T02:26:52;100927.38;;;22.07;56.48
43420;BME280;29017;51.514;-0.178;2022-08-04T02:29:39;100921.19;;;22.07;56.92
43420;BME280;29017;51.514;-0.178;2022-08-04T02:32:20;100930.03;;;22.07;57.20
43420;BME280;29017;51.514;-0.178;2022-08-04T02:35:02;100929.22;;;22.07;56.77
43420;BME280;29017;51.514;-0.178;2022-08-04T02:37:31;100923.84;;;22.07;56.73
43420;BME280;29017;51.514;-0.178;2022-08-04T02:40:00;100928.63;;;22.05;56.51
43420;BME280;29017;51.514;-0.178;2022-08-04T02:42:28;100929.06;;;22.02;57.05
43420;BME280;29017;51.514;-0.178;2022-08-04T02:44:57;100926.03;;;21.98;56.83
43420;BME280;29017;51.514;-0.178;2022-08-04T02:47:26;100933.25;;;21.98;57.02
43420;BME280;29017;51.514;-0.178;2022-08-04T02:50:13;100933.09;;;21.93;57.37
43420;BME280;29017;51.514;-0.178;2022-08-04T02:52:57;100926.72;;;21.94;56.91
43420;BME280;29017;51.514;-0.178;2022-08-04T02:55:28;100930.84;;;21.90;57.11
43420;BME280;29017;51.514;-0.178;2022-08-04T02:57:57;100924.91;;;21.88;56.95
43420;BME280;29017;51.514;-0.178;2022-08-04T03:00:24;100930.69;;;21.85;56.98
43420;BME280;29017;51.514;-0.178;2022-08-04T03:28:00;100913.97;;;21.71;59.22
43420;BME280;29017;51.514;-0.178;2022-08-04T03:33:42;100914.16;;;21.69;58.83
43420;BME280;29017;51.514;-0.178;2022-08-04T03:39:30;100928.19;;;21.71;57.78
43420;BME280;29017;51.514;-0.178;2022-08-04T03:45:16;100913.66;;;21.61;58.32
43420;BME280;29017;51.514;-0.178;2022-08-04T03:50:53;100924.22;;;21.56;58.17
43420;BME280;29017;51.514;-0.178;2022-08-04T04:08:37;100944.22;;;21.35;58.55
43420;BME280;29017;51.514;-0.178;2022-08-04T04:20:52;100943.22;;;21.29;59.89
43420;BME280;29017;51.514;-0.178;2022-08-04T04:23:38;100946.56;;;21.25;60.03
43420;BME280;29017;51.514;-0.178;2022-08-04T04:31:52;100945.63;;;21.13;61.67
43420;BME280;29017;51.514;-0.178;2022-08-04T04:43:46;100938.06;;;21.03;62.47
43420;BME280;29017;51.514;-0.178;2022-08-04T04:49:50;100940.16;;;21.01;62.99
43420;BME280;29017;51.514;-0.178;2022-08-04T04:52:29;100942.22;;;20.99;63.65
43420;BME280;29017;51.514;-0.178;2022-08-04T04:55:11;100946.75;;;20.99;63.67
43420;BME280;29017;51.514;-0.178;2022-08-04T04:57:40;100952.09;;;20.99;63.59
43420;BME280;29017;51.514;-0.178;2022-08-04T05:00:22;100956.44;;;21.00;63.46
43420;BME280;29017;51.514;-0.178;2022-08-04T05:11:55;100964.25;;;21.01;64.12
43420;BME280;29017;51.514;-0.178;2022-08-04T05:14:51;100965.28;;;21.00;64.17
43420;BME280;29017;51.514;-0.178;2022-08-04T05:19:57;100978.50;;;20.95;63.85
43420;BME280;29017;51.514;-0.178;2022-08-04T05:22:44;100975.19;;;20.93;64.38
43420;BME280;29017;51.514;-0.178;2022-08-04T05:28:05;100982.00;;;20.96;64.44
43420;BME280;29017;51.514;-0.178;2022-08-04T05:30:37;100983.63;;;20.97;63.63
43420;BME280;29017;51.514;-0.178;2022-08-04T05:33:25;100986.31;;;20.97;63.44
43420;BME280;29017;51.514;-0.178;2022-08-04T05:35:58;100992.47;;;20.97;63.85
43420;BME280;29017;51.514;-0.178;2022-08-04T05:38:48;100991.66;;;20.97;63.75
43420;BME280;29017;51.514;-0.178;2022-08-04T05:41:17;100995.16;;;20.97;63.82
43420;BME280;29017;51.514;-0.178;2022-08-04T05:43:44;100988.53;;;21.00;63.77
43420;BME280;29017;51.514;-0.178;2022-08-04T05:46:14;101000.69;;;21.02;64.25
43420;BME280;29017;51.514;-0.178;2022-08-04T05:48:44;100991.00;;;21.01;63.74
43420;BME280;29017;51.514;-0.178;2022-08-04T05:51:11;100995.31;;;21.02;63.68
43420;BME280;29017;51.514;-0.178;2022-08-04T05:53:41;100993.88;;;21.00;63.49
43420;BME280;29017;51.514;-0.178;2022-08-04T05:56:11;100997.00;;;20.97;64.01
43420;BME280;29017;51.514;-0.178;2022-08-04T05:58:40;100998.03;;;20.96;64.29
43420;BME280;29017;51.514;-0.178;2022-08-04T06:01:09;100998.47;;;20.92;63.78
43420;BME280;29017;51.514;-0.178;2022-08-04T06:03:37;101002.03;;;20.86;63.78
43420;BME280;29017;51.514;-0.178;2022-08-04T06:06:06;101000.81;;;20.82;63.92
43420;BME280;29017;51.514;-0.178;2022-08-04T06:08:34;101001.22;;;20.79;64.03
43420;BME280;29017;51.514;-0.178;2022-08-04T06:11:04;101002.91;;;20.74;63.85
43420;BME280;29017;51.514;-0.178;2022-08-04T06:13:58;100999.22;;;20.68;64.28
43420;BME280;29017;51.514;-0.178;2022-08-04T06:16:33;100997.81;;;20.66;64.73
43420;BME280;29017;51.514;-0.178;2022-08-04T06:19:11;101005.22;;;20.64;64.85
43420;BME280;29017;51.514;-0.178;2022-08-04T06:22:04;100999.28;;;20.62;64.54
43420;BME280;29017;51.514;-0.178;2022-08-04T06:24:35;101012.25;;;20.58;64.83
43420;BME280;29017;51.514;-0.178;2022-08-04T06:27:04;101005.88;;;20.59;65.21
43420;BME280;29017;51.514;-0.178;2022-08-04T06:29:32;101003.41;;;20.58;64.76
43420;BME280;29017;51.514;-0.178;2022-08-04T06:32:18;101008.16;;;20.56;65.03
43420;BME280;29017;51.514;-0.178;2022-08-04T06:35:07;101012.25;;;20.58;65.30
43420;BME280;29017;51.514;-0.178;2022-08-04T06:37:36;101015.53;;;20.60;64.96
43420;BME280;29017;51.514;-0.178;2022-08-04T06:40:10;101009.16;;;20.61;65.02
43420;BME280;29017;51.514;-0.178;2022-08-04T06:42:59;101010.00;;;20.62;65.11
43420;BME280;29017;51.514;-0.178;2022-08-04T06:45:27;101013.47;;;20.62;65.21
43420;BME280;29017;51.514;-0.178;2022-08-04T06:47:55;101013.47;;;20.62;65.41
43420;BME280;29017;51.514;-0.178;2022-08-04T06:50:22;101021.28;;;20.64;65.58
43420;BME280;29017;51.514;-0.178;2022-08-04T06:53:10;101017.38;;;20.66;65.71
43420;BME280;29017;51.514;-0.178;2022-08-04T06:55:39;101025.78;;;20.70;65.37
43420;BME280;29017;51.514;-0.178;2022-08-04T06:58:07;101026.59;;;20.70;65.63
43420;BME280;29017;51.514;-0.178;2022-08-04T07:00:37;101030.91;;;20.71;65.21
43420;BME280;29017;51.514;-0.178;2022-08-04T07:03:05;101028.44;;;20.70;65.02
43420;BME280;29017;51.514;-0.178;2022-08-04T07:05:33;101026.81;;;20.69;65.02
43420;BME280;29017;51.514;-0.178;2022-08-04T07:08:01;101029.06;;;20.72;65.14
43420;BME280;29017;51.514;-0.178;2022-08-04T07:10:30;101029.66;;;20.74;64.88
43420;BME280;29017;51.514;-0.178;2022-08-04T07:12:58;101032.94;;;20.76;65.14
43420;BME280;29017;51.514;-0.178;2022-08-04T07:15:26;101036.28;;;20.71;64.80
43420;BME280;29017;51.514;-0.178;2022-08-04T07:17:54;101032.78;;;20.71;64.62
43420;BME280;29017;51.514;-0.178;2022-08-04T07:20:27;101035.66;;;20.69;64.27
43420;BME280;29017;51.514;-0.178;2022-08-04T07:23:05;101039.97;;;20.70;64.32
43420;BME280;29017;51.514;-0.178;2022-08-04T07:25:36;101040.34;;;20.74;64.49
43420;BME280;29017;51.514;-0.178;2022-08-04T07:28:24;101032.31;;;20.80;65.01
43420;BME280;29017;51.514;-0.178;2022-08-04T07:30:53;101038.66;;;20.86;64.12
43420;BME280;29017;51.514;-0.178;2022-08-04T07:33:21;101036.97;;;20.91;63.71
43420;BME280;29017;51.514;-0.178;2022-08-04T07:35:52;101039.41;;;20.93;62.92
43420;BME280;29017;51.514;-0.178;2022-08-04T07:38:40;101033.84;;;20.95;63.48
43420;BME280;29017;51.514;-0.178;2022-08-04T07:41:22;101038.78;;;20.98;63.54
43420;BME280;29017;51.514;-0.178;2022-08-04T07:44:06;101036.28;;;21.03;63.53
43420;BME280;29017;51.514;-0.178;2022-08-04T07:46:35;101040.59;;;21.04;63.89
43420;BME280;29017;51.514;-0.178;2022-08-04T07:49:03;101035.81;;;21.12;63.71
43420;BME280;29017;51.514;-0.178;2022-08-04T07:51:31;101038.78;;;21.29;62.83
43420;BME280;29017;51.514;-0.178;2022-08-04T07:53:58;101029.06;;;21.34;62.65
43420;BME280;29017;51.514;-0.178;2022-08-04T07:56:28;101035.41;;;21.40;62.86
43420;BME280;29017;51.514;-0.178;2022-08-04T07:58:55;101034.38;;;21.41;62.34
43420;BME280;29017;51.514;-0.178;2022-08-04T08:01:23;101036.22;;;21.41;61.76
43420;BME280;29017;51.514;-0.178;2022-08-04T08:03:52;101040.38;;;21.37;61.76
43420;BME280;29017;51.514;-0.178;2022-08-04T08:06:20;101039.72;;;21.41;61.68
43420;BME280;29017;51.514;-0.178;2022-08-04T08:09:00;101040.56;;;21.42;61.86
43420;BME280;29017;51.514;-0.178;2022-08-04T08:11:45;101032.31;;;21.43;61.87
43420;BME280;29017;51.514;-0.178;2022-08-04T08:14:35;101033.34;;;21.42;61.82
43420;BME280;29017;51.514;-0.178;2022-08-04T08:17:04;101039.69;;;21.48;61.55
43420;BME280;29017;51.514;-0.178;2022-08-04T08:19:32;101036.25;;;21.59;61.97
43420;BME280;29017;51.514;-0.178;2022-08-04T08:22:03;101036.06;;;21.60;61.63
43420;BME280;29017;51.514;-0.178;2022-08-04T08:24:34;101037.91;;;21.60;61.91
43420;BME280;29017;51.514;-0.178;2022-08-04T08:27:02;101029.88;;;21.60;61.15
43420;BME280;29017;51.514;-0.178;2022-08-04T08:29:33;101033.59;;;21.59;60.30
43420;BME280;29017;51.514;-0.178;2022-08-04T08:32:01;101034.88;;;21.56;61.00
43420;BME280;29017;51.514;-0.178;2022-08-04T08:34:34;101036.25;;;21.59;60.82
43420;BME280;29017;51.514;-0.178;2022-08-04T08:48:52;101033.16;;;21.62;60.77
43420;BME280;29017;51.514;-0.178;2022-08-04T08:57:35;101036.59;;;21.69;60.60
43420;BME280;29017;51.514;-0.178;2022-08-04T09:03:21;101043.38;;;21.71;59.41
43420;BME280;29017;51.514;-0.178;2022-08-04T09:08:54;101048.28;;;21.74;59.54
43420;BME280;29017;51.514;-0.178;2022-08-04T09:11:37;101042.88;;;21.81;59.42
43420;BME280;29017;51.514;-0.178;2022-08-04T09:14:19;101044.78;;;21.99;59.05
43420;BME280;29017;51.514;-0.178;2022-08-04T09:17:26;101044.94;;;22.22;57.56
43420;BME280;29017;51.514;-0.178;2022-08-04T09:20:09;101040.22;;;22.36;56.33
43420;BME280;29017;51.514;-0.178;2022-08-04T09:22:57;101047.38;;;22.42;56.52
43420;BME280;29017;51.514;-0.178;2022-08-04T09:25:56;101044.69;;;22.42;56.52
43420;BME280;29017;51.514;-0.178;2022-08-04T09:28:23;101048.34;;;22.47;57.51
43420;BME280;29017;51.514;-0.178;2022-08-04T09:31:16;101043.34;;;22.51;57.50
43420;BME280;29017;51.514;-0.178;2022-08-04T09:37:06;101052.28;;;22.63;56.61
43420;BME280;29017;51.514;-0.178;2022-08-04T09:43:13;101052.63;;;22.67;56.33
43420;BME280;29017;51.514;-0.178;2022-08-04T09:45:52;101045.03;;;22.64;55.56
43420;BME280;29017;51.514;-0.178;2022-08-04T09:48:58;101049.72;;;22.68;56.32
43420;BME280;29017;51.514;-0.178;2022-08-04T09:54:45;101047.59;;;22.58;56.34
43420;BME280;29017;51.514;-0.178;2022-08-04T09:57:40;101048.16;;;22.60;55.19
43420;BME280;29017;51.514;-0.178;2022-08-04T10:00:12;101050.97;;;22.66;54.91
43420;BME280;29017;51.514;-0.178;2022-08-04T10:02:51;101060.03;;;22.71;54.80
43420;BME280;29017;51.514;-0.178;2022-08-04T10:05:22;101055.88;;;22.75;54.66
43420;BME280;29017;51.514;-0.178;2022-08-04T10:10:53;101057.75;;;22.86;55.41
43420;BME280;29017;51.514;-0.178;2022-08-04T10:16:39;101064.06;;;22.80;55.84
43420;BME280;29017;51.514;-0.178;2022-08-04T10:19:25;101070.81;;;22.83;55.23
43420;BME280;29017;51.514;-0.178;2022-08-04T10:28:01;101068.34;;;22.81;54.24
43420;BME280;29017;51.514;-0.178;2022-08-04T10:30:32;101066.00;;;22.73;55.26
43420;BME280;29017;51.514;-0.178;2022-08-04T10:33:10;101072.31;;;22.79;54.89
43420;BME280;29017;51.514;-0.178;2022-08-04T10:35:49;101077.00;;;22.83;54.58
43420;BME280;29017;51.514;-0.178;2022-08-04T10:38:35;101070.50;;;22.91;53.84
43420;BME280;29017;51.514;-0.178;2022-08-04T10:41:34;101071.59;;;23.01;54.36
43420;BME280;29017;51.514;-0.178;2022-08-04T10:46:50;101079.00;;;23.18;53.39
43420;BME280;29017;51.514;-0.178;2022-08-04T10:52:06;101077.25;;;23.23;52.16
43420;BME280;29017;51.514;-0.178;2022-08-04T10:55:01;101070.38;;;23.27;52.24
43420;BME280;29017;51.514;-0.178;2022-08-04T10:57:46;101076.56;;;23.28;52.68
43420;BME280;29017;51.514;-0.178;2022-08-04T11:00:26;101077.03;;;23.25;52.17
43420;BME280;29017;51.514;-0.178;2022-08-04T11:03:25;101085.53;;;23.22;52.04
43420;BME280;29017;51.514;-0.178;2022-08-04T11:05:54;101083.53;;;23.17;51.73
43420;BME280;29017;51.514;-0.178;2022-08-04T11:08:26;101082.59;;;23.12;51.20
43420;BME280;29017;51.514;-0.178;2022-08-04T11:13:46;101088.34;;;23.15;52.30
43420;BME280;29017;51.514;-0.178;2022-08-04T11:16:23;101094.88;;;23.19;51.96
43420;BME280;29017;51.514;-0.178;2022-08-04T11:19:10;101098.84;;;23.17;50.71
43420;BME280;29017;51.514;-0.178;2022-08-04T11:22:23;101093.72;;;23.15;51.48
43420;BME280;29017;51.514;-0.178;2022-08-04T11:25:07;101083.91;;;23.21;51.05
43420;BME280;29017;51.514;-0.178;2022-08-04T11:30:17;101084.75;;;23.33;51.55
43420;BME280;29017;51.514;-0.178;2022-08-04T11:41:21;101086.16;;;23.35;51.33
43420;BME280;29017;51.514;-0.178;2022-08-04T11:43:55;101097.03;;;23.40;50.33
43420;BME280;29017;51.514;-0.178;2022-08-04T11:46:40;101089.97;;;23.46;50.01
43420;BME280;29017;51.514;-0.178;2022-08-04T11:49:25;101097.69;;;23.54;50.36
43420;BME280;29017;51.514;-0.178;2022-08-04T11:51:54;101096.28;;;23.63;48.55
43420;BME280;29017;51.514;-0.178;2022-08-04T11:54:22;101098.66;;;23.71;48.88
43420;BME280;29017;51.514;-0.178;2022-08-04T11:56:49;101096.41;;;23.80;49.64
43420;BME280;29017;51.514;-0.178;2022-08-04T11:59:24;101101.22;;;23.90;50.15
43420;BME280;29017;51.514;-0.178;2022-08-04T12:04:59;101090.69;;;24.00;48.66
43420;BME280;29017;51.514;-0.178;2022-08-04T12:10:41;101085.41;;;24.05;48.61
43420;BME280;29017;51.514;-0.178;2022-08-04T12:16:04;101082.25;;;24.08;49.53
43420;BME280;29017;51.514;-0.178;2022-08-04T12:18:57;101078.63;;;24.14;49.88
43420;BME280;29017;51.514;-0.178;2022-08-04T12:21:38;101093.84;;;24.20;48.21
43420;BME280;29017;51.514;-0.178;2022-08-04T12:24:19;101081.34;;;24.25;47.48
43420;BME280;29017;51.514;-0.178;2022-08-04T12:26:58;101084.97;;;24.31;47.71
43420;BME280;29017;51.514;-0.178;2022-08-04T12:29:33;101083.91;;;24.32;47.15
43420;BME280;29017;51.514;-0.178;2022-08-04T12:32:10;101092.53;;;24.34;46.96
43420;BME280;29017;51.514;-0.178;2022-08-04T12:37:25;101095.94;;;24.29;47.26
43420;BME280;29017;51.514;-0.178;2022-08-04T12:40:00;101097.25;;;24.27;47.14
43420;BME280;29017;51.514;-0.178;2022-08-04T12:43:57;101097.03;;;24.17;47.78
43420;BME280;29017;51.514;-0.178;2022-08-04T12:46:07;101109.97;;;24.08;49.51
43420;BME280;29017;51.514;-0.178;2022-08-04T12:48:36;101098.75;;;24.00;49.83
43420;BME280;29017;51.514;-0.178;2022-08-04T12:51:07;101094.69;;;23.97;50.51
43420;BME280;29017;51.514;-0.178;2022-08-04T12:53:54;101102.75;;;23.97;50.41
43420;BME280;29017;51.514;-0.178;2022-08-04T12:56:26;101105.66;;;23.96;50.12
43420;BME280;29017;51.514;-0.178;2022-08-04T12:59:02;101108.34;;;23.96;49.64
43420;BME280;29017;51.514;-0.178;2022-08-04T13:01:30;101109.72;;;23.98;48.89
43420;BME280;29017;51.514;-0.178;2022-08-04T13:04:22;101111.16;;;24.01;47.39
43420;BME280;29017;51.514;-0.178;2022-08-04T13:07:09;101115.22;;;24.03;47.99
43420;BME280;29017;51.514;-0.178;2022-08-04T13:09:36;101102.97;;;24.07;47.54
43420;BME280;29017;51.514;-0.178;2022-08-04T13:12:13;101108.34;;;24.07;47.99
43420;BME280;29017;51.514;-0.178;2022-08-04T13:14:41;101115.34;;;24.08;47.67
43420;BME280;29017;51.514;-0.178;2022-08-04T13:17:12;101095.69;;;24.08;47.47
43420;BME280;29017;51.514;-0.178;2022-08-04T13:19:48;101098.03;;;24.04;47.31
43420;BME280;29017;51.514;-0.178;2022-08-04T13:22:24;101093.00;;;24.08;47.54
43420;BME280;29017;51.514;-0.178;2022-08-04T13:24:52;101090.09;;;24.09;47.77
43420;BME280;29017;51.514;-0.178;2022-08-04T13:27:40;101098.50;;;24.13;47.53
43420;BME280;29017;51.514;-0.178;2022-08-04T13:30:17;101095.34;;;24.16;45.80
43420;BME280;29017;51.514;-0.178;2022-08-04T13:32:54;101092.56;;;24.11;46.12
43420;BME280;29017;51.514;-0.178;2022-08-04T13:35:23;101098.75;;;24.11;45.92
43420;BME280;29017;51.514;-0.178;2022-08-04T13:38:12;101087.63;;;24.08;45.73
43420;BME280;29017;51.514;-0.178;2022-08-04T13:40:43;101094.66;;;24.09;45.95
43420;BME280;29017;51.514;-0.178;2022-08-04T13:43:45;101101.19;;;24.13;45.45
43420;BME280;29017;51.514;-0.178;2022-08-04T13:46:37;101084.25;;;24.12;46.57
43420;BME280;29017;51.514;-0.178;2022-08-04T13:49:09;101084.72;;;24.09;45.63
43420;BME280;29017;51.514;-0.178;2022-08-04T13:52:07;101083.88;;;24.09;45.35
43420;BME280;29017;51.514;-0.178;2022-08-04T13:54:43;101080.97;;;24.10;45.14
43420;BME280;29017;51.514;-0.178;2022-08-04T13:57:16;101086.94;;;24.12;45.25
43420;BME280;29017;51.514;-0.178;2022-08-04T14:00:01;101082.50;;;24.18;45.87
43420;BME280;29017;51.514;-0.178;2022-08-04T14:03:01;101091.16;;;24.20;45.26
43420;BME280;29017;51.514;-0.178;2022-08-04T14:06:17;101088.81;;;24.23;44.13
43420;BME280;29017;51.514;-0.178;2022-08-04T14:11:20;101087.88;;;24.18;45.30
43420;BME280;29017;51.514;-0.178;2022-08-04T14:14:23;101087.09;;;24.17;44.50
43420;BME280;29017;51.514;-0.178;2022-08-04T14:19:58;101085.66;;;24.26;44.08
43420;BME280;29017;51.514;-0.178;2022-08-04T14:24:59;101092.44;;;24.29;43.62
43420;BME280;29017;51.514;-0.178;2022-08-04T14:27:41;101094.91;;;24.31;42.92
43420;BME280;29017;51.514;-0.178;2022-08-04T14:30:33;101086.50;;;24.27;43.13
43420;BME280;29017;51.514;-0.178;2022-08-04T14:33:08;101080.03;;;24.28;44.10
43420;BME280;29017;51.514;-0.178;2022-08-04T14:35:56;101082.59;;;24.35;44.18
43420;BME280;29017;51.514;-0.178;2022-08-04T14:38:42;101081.31;;;24.37;43.98
43420;BME280;29017;51.514;-0.178;2022-08-04T14:41:09;101090.44;;;24.36;44.18
43420;BME280;29017;51.514;-0.178;2022-08-04T14:43:45;101082.16;;;24.38;43.89
43420;BME280;29017;51.514;-0.178;2022-08-04T14:46:12;101079.09;;;24.34;43.42
43420;BME280;29017;51.514;-0.178;2022-08-04T14:49:02;101077.22;;;24.35;43.65
43420;BME280;29017;51.514;-0.178;2022-08-04T14:51:44;101080.41;;;24.32;44.75
43420;BME280;29017;51.514;-0.178;2022-08-04T14:54:13;101082.25;;;24.31;44.44
43420;BME280;29017;51.514;-0.178;2022-08-04T14:56:56;101079.34;;;24.33;44.22
43420;BME280;29017;51.514;-0.178;2022-08-04T14:59:23;101082.03;;;24.33;43.74
43420;BME280;29017;51.514;-0.178;2022-08-04T15:01:52;101079.34;;;24.33;44.09
43420;BME280;29017;51.514;-0.178;2022-08-04T15:04:27;101078.25;;;24.34;44.12
43420;BME280;29017;51.514;-0.178;2022-08-04T15:06:55;101079.34;;;24.33;44.69
43420;BME280;29017;51.514;-0.178;2022-08-04T15:09:25;101071.50;;;24.31;44.82
43420;BME280;29017;51.514;-0.178;2022-08-04T15:11:52;101075.25;;;24.30;44.55
43420;BME280;29017;51.514;-0.178;2022-08-04T15:14:20;101079.25;;;24.27;44.82
43420;BME280;29017;51.514;-0.178;2022-08-04T15:17:05;101083.53;;;24.28;45.37
43420;BME280;29017;51.514;-0.178;2022-08-04T15:19:38;101084.38;;;24.29;45.32
43420;BME280;29017;51.514;-0.178;2022-08-04T15:22:05;101087.31;;;24.27;44.72
43420;BME280;29017;51.514;-0.178;2022-08-04T15:24:43;101095.72;;;24.31;43.60
43420;BME280;29017;51.514;-0.178;2022-08-04T15:27:18;101091.72;;;24.34;43.22
43420;BME280;29017;51.514;-0.178;2022-08-04T15:29:46;101096.75;;;24.30;44.02
43420;BME280;29017;51.514;-0.178;2022-08-04T15:32:31;101095.59;;;24.26;44.54
43420;BME280;29017;51.514;-0.178;2022-08-04T15:35:07;101099.56;;;24.23;43.48
43420;BME280;29017;51.514;-0.178;2022-08-04T15:40:29;101105.09;;;24.17;44.03
43420;BME280;29017;51.514;-0.178;2022-08-04T15:45:56;101099.69;;;24.05;43.83
43420;BME280;29017;51.514;-0.178;2022-08-04T15:48:45;101097.09;;;23.99;44.13
43420;BME280;29017;51.514;-0.178;2022-08-04T15:51:24;101097.59;;;23.96;44.01
43420;BME280;29017;51.514;-0.178;2022-08-04T15:59:00;101107.75;;;23.94;44.25
43420;BME280;29017;51.514;-0.178;2022-08-04T16:01:27;101118.88;;;23.97;43.78
43420;BME280;29017;51.514;-0.178;2022-08-04T16:03:54;101107.31;;;23.97;44.11
43420;BME280;29017;51.514;-0.178;2022-08-04T16:09:03;101098.75;;;24.00;43.85
43420;BME280;29017;51.514;-0.178;2022-08-04T16:14:09;101111.72;;;24.03;43.55
43420;BME280;29017;51.514;-0.178;2022-08-04T16:22:02;101103.19;;;24.06;43.23
43420;BME280;29017;51.514;-0.178;2022-08-04T16:24:34;101115.00;;;24.05;43.10
43420;BME280;29017;51.514;-0.178;2022-08-04T16:27:08;101115.22;;;24.03;43.13
43420;BME280;29017;51.514;-0.178;2022-08-04T16:37:41;101127.63;;;24.04;42.58
43420;BME280;29017;51.514;-0.178;2022-08-04T16:40:32;101128.69;;;24.03;42.23
43420;BME280;29017;51.514;-0.178;2022-08-04T16:43:11;101129.38;;;23.99;42.21
43420;BME280;29017;51.514;-0.178;2022-08-04T16:48:11;101143.53;;;23.94;42.50
43420;BME280;29017;51.514;-0.178;2022-08-04T16:50:47;101142.13;;;23.92;41.97
43420;BME280;29017;51.514;-0.178;2022-08-04T16:53:15;101136.16;;;23.90;41.47
43420;BME280;29017;51.514;-0.178;2022-08-04T16:56:05;101134.78;;;23.87;42.03
43420;BME280;29017;51.514;-0.178;2022-08-04T16:58:33;101138.50;;;23.86;41.69
43420;BME280;29017;51.514;-0.178;2022-08-04T17:01:13;101146.56;;;23.86;41.67
43420;BME280;29017;51.514;-0.178;2022-08-04T17:03:59;101144.94;;;23.85;41.71
43420;BME280;29017;51.514;-0.178;2022-08-04T17:06:36;101144.94;;;23.85;42.43
43420;BME280;29017;51.514;-0.178;2022-08-04T17:09:08;101143.06;;;23.85;40.79
43420;BME280;29017;51.514;-0.178;2022-08-04T17:11:44;101143.50;;;23.82;41.04
43420;BME280;29017;51.514;-0.178;2022-08-04T17:14:12;101142.72;;;23.82;41.22
43420;BME280;29017;51.514;-0.178;2022-08-04T17:16:41;101149.13;;;23.81;41.24
43420;BME280;29017;51.514;-0.178;2022-08-04T17:19:17;101152.88;;;23.80;41.03
43420;BME280;29017;51.514;-0.178;2022-08-04T17:21:50;101148.09;;;23.82;41.00
43420;BME280;29017;51.514;-0.178;2022-08-04T17:24:17;101147.72;;;23.78;40.71
43420;BME280;29017;51.514;-0.178;2022-08-04T17:26:46;101140.47;;;23.79;40.34
43420;BME280;29017;51.514;-0.178;2022-08-04T17:29:23;101136.41;;;23.76;39.92
43420;BME280;29017;51.514;-0.178;2022-08-04T17:32:16;101136.13;;;23.78;40.48
43420;BME280;29017;51.514;-0.178;2022-08-04T17:34:54;101125.03;;;23.74;40.50
43420;BME280;29017;51.514;-0.178;2022-08-04T17:37:41;101138.47;;;23.74;40.41
43420;BME280;29017;51.514;-0.178;2022-08-04T17:40:18;101144.34;;;23.71;40.90
43420;BME280;29017;51.514;-0.178;2022-08-04T17:43:05;101147.03;;;23.71;40.34